createdAt,value
2018-08-17T00:00:18.889Z,22.92
2018-08-17T00:01:23.071Z,22.90
2018-08-17T00:02:32.671Z,22.90
2018-08-17T00:03:42.510Z,22.88
2018-08-17T00:04:46.628Z,22.87
2018-08-17T00:05:50.491Z,22.86
2018-08-17T00:06:54.389Z,22.87
2018-08-17T00:07:58.286Z,22.85
2018-08-17T00:09:02.452Z,22.85
2018-08-17T00:10:06.658Z,22.84
2018-08-17T00:11:11.002Z,22.83
2018-08-17T00:12:15.270Z,22.82
2018-08-17T00:13:19.477Z,22.81
2018-08-17T00:14:23.885Z,22.79
2018-08-17T00:15:28.053Z,22.79
2018-08-17T00:16:32.244Z,22.77
2018-08-17T00:17:36.420Z,22.77
2018-08-17T00:18:40.734Z,22.76
2018-08-17T00:19:45.028Z,22.74
2018-08-17T00:20:49.202Z,22.75
2018-08-17T00:21:53.375Z,22.74
2018-08-17T00:22:57.521Z,22.73
2018-08-17T00:24:01.958Z,22.72
2018-08-17T00:25:06.258Z,22.72
2018-08-17T00:26:10.451Z,22.73
2018-08-17T00:27:14.619Z,22.72
2018-08-17T00:28:18.775Z,22.72
2018-08-17T00:29:22.938Z,22.72
2018-08-17T00:30:27.095Z,22.72
2018-08-17T00:31:31.270Z,22.72
2018-08-17T00:32:35.476Z,22.72
2018-08-17T00:33:39.620Z,22.73
2018-08-17T00:34:43.804Z,22.73
2018-08-17T00:35:47.988Z,22.73
2018-08-17T00:36:52.363Z,22.73
2018-08-17T00:37:56.523Z,22.72
2018-08-17T00:39:00.707Z,22.72
2018-08-17T00:40:05.882Z,22.72
2018-08-17T00:41:10.071Z,22.72
2018-08-17T00:42:14.345Z,22.72
2018-08-17T00:43:18.838Z,22.72
2018-08-17T00:44:23.032Z,22.72
2018-08-17T00:45:27.235Z,22.71
2018-08-17T00:46:31.426Z,22.72
2018-08-17T00:47:35.749Z,22.71
2018-08-17T00:48:39.941Z,22.71
2018-08-17T00:49:44.132Z,22.71
2018-08-17T00:50:48.364Z,22.71
2018-08-17T00:51:52.603Z,22.71
2018-08-17T00:52:56.782Z,22.70
2018-08-17T00:54:01.013Z,22.70
2018-08-17T00:55:05.531Z,22.70
2018-08-17T00:56:09.781Z,22.70
2018-08-17T00:57:14.175Z,22.69
2018-08-17T00:58:18.447Z,22.69
2018-08-17T00:59:22.610Z,22.70
2018-08-17T01:00:26.802Z,22.69
2018-08-17T01:01:31.002Z,22.69
2018-08-17T01:02:35.229Z,22.69
2018-08-17T01:03:39.694Z,22.69
2018-08-17T01:04:43.852Z,22.68
2018-08-17T01:05:48.064Z,22.68
2018-08-17T01:06:52.376Z,22.68
2018-08-17T01:07:56.600Z,22.68
2018-08-17T01:09:00.837Z,22.66
2018-08-17T01:10:05.307Z,22.66
2018-08-17T01:11:09.492Z,22.65
2018-08-17T01:12:13.812Z,22.64
2018-08-17T01:13:17.996Z,22.61
2018-08-17T01:14:22.295Z,22.59
2018-08-17T01:15:26.626Z,22.56
2018-08-17T01:16:30.781Z,22.54
2018-08-17T01:17:35.002Z,22.50
2018-08-17T01:18:39.167Z,22.45
2018-08-17T01:19:43.414Z,22.38
2018-08-17T01:20:47.585Z,22.35
2018-08-17T01:21:51.747Z,22.30
2018-08-17T01:22:56.071Z,22.27
2018-08-17T01:24:00.226Z,22.24
2018-08-17T01:25:04.967Z,22.21
2018-08-17T01:26:09.162Z,22.18
2018-08-17T01:27:13.363Z,22.16
2018-08-17T01:28:17.550Z,22.14
2018-08-17T01:29:21.923Z,22.11
2018-08-17T01:30:26.091Z,22.09
2018-08-17T01:31:30.266Z,22.07
2018-08-17T01:32:34.438Z,22.05
2018-08-17T01:33:38.650Z,22.02
2018-08-17T01:34:42.798Z,22.01
2018-08-17T01:35:46.971Z,21.98
2018-08-17T01:36:51.297Z,21.97
2018-08-17T01:37:55.483Z,21.97
2018-08-17T01:38:59.683Z,21.93
2018-08-17T01:40:03.914Z,21.91
2018-08-17T01:41:08.107Z,21.88
2018-08-17T01:42:12.289Z,21.86
2018-08-17T01:43:16.463Z,21.84
2018-08-17T01:44:20.905Z,21.82
2018-08-17T01:45:25.072Z,21.79
2018-08-17T01:46:29.235Z,21.78
2018-08-17T01:47:33.728Z,21.76
2018-08-17T01:48:37.882Z,21.73
2018-08-17T01:49:42.136Z,21.71
2018-08-17T01:50:46.447Z,21.69
2018-08-17T01:51:50.604Z,21.65
2018-08-17T01:52:54.787Z,21.62
2018-08-17T01:53:58.946Z,21.60
2018-08-17T01:55:03.264Z,21.58
2018-08-17T01:56:07.482Z,21.59
2018-08-17T01:57:11.880Z,21.55
2018-08-17T01:58:16.074Z,21.53
2018-08-17T01:59:20.291Z,21.50
2018-08-17T02:00:24.508Z,21.45
2018-08-17T02:01:28.698Z,21.43
2018-08-17T02:02:32.871Z,21.38
2018-08-17T02:03:37.063Z,21.35
2018-08-17T02:04:41.247Z,21.32
2018-08-17T02:05:45.484Z,21.27
2018-08-17T02:06:49.659Z,21.23
2018-08-17T02:07:54.087Z,21.20
2018-08-17T02:08:58.271Z,21.18
2018-08-17T02:10:02.475Z,21.18
2018-08-17T02:11:06.854Z,21.16
2018-08-17T02:12:11.023Z,21.13
2018-08-17T02:13:19.482Z,21.11
2018-08-17T02:14:23.687Z,21.08
2018-08-17T02:15:27.974Z,21.06
2018-08-17T02:16:32.147Z,21.06
2018-08-17T02:17:36.408Z,21.05
2018-08-17T02:18:40.694Z,21.06
2018-08-17T02:19:44.834Z,21.05
2018-08-17T02:20:49.009Z,21.04
2018-08-17T02:21:53.205Z,21.04
2018-08-17T02:22:57.570Z,21.02
2018-08-17T02:24:01.724Z,21.02
2018-08-17T02:25:05.951Z,21.02
2018-08-17T02:26:10.116Z,21.01
2018-08-17T02:27:14.334Z,21.00
2018-08-17T02:28:18.487Z,20.99
2018-08-17T02:29:22.703Z,20.99
2018-08-17T02:30:26.861Z,20.99
2018-08-17T02:31:31.085Z,21.01
2018-08-17T02:32:35.278Z,21.01
2018-08-17T02:33:39.604Z,21.01
2018-08-17T02:34:43.872Z,21.02
2018-08-17T02:35:50.335Z,21.02
2018-08-17T02:36:54.504Z,21.03
2018-08-17T02:37:58.742Z,21.05
2018-08-17T02:39:03.150Z,21.06
2018-08-17T02:40:07.371Z,21.08
2018-08-17T02:41:11.766Z,21.09
2018-08-17T02:42:19.182Z,21.11
2018-08-17T02:43:23.380Z,21.12
2018-08-17T02:44:28.043Z,21.13
2018-08-17T02:45:32.219Z,21.13
2018-08-17T02:46:36.440Z,21.14
2018-08-17T02:47:40.603Z,21.14
2018-08-17T02:48:44.799Z,21.14
2018-08-17T02:49:48.989Z,21.17
2018-08-17T02:50:53.463Z,21.17
2018-08-17T02:51:57.707Z,21.17
2018-08-17T02:53:01.887Z,21.17
2018-08-17T02:54:07.019Z,21.18
2018-08-17T02:55:11.195Z,21.19
2018-08-17T02:56:15.366Z,21.20
2018-08-17T02:57:19.552Z,21.20
2018-08-17T02:58:23.691Z,21.21
2018-08-17T02:59:27.890Z,21.21
2018-08-17T03:00:32.080Z,21.22
2018-08-17T03:01:36.280Z,21.23
2018-08-17T03:02:40.543Z,21.23
2018-08-17T03:03:44.721Z,21.24
2018-08-17T03:04:49.023Z,21.23
2018-08-17T03:05:53.195Z,21.23
2018-08-17T03:06:57.388Z,21.24
2018-08-17T03:08:01.613Z,21.24
2018-08-17T03:09:07.831Z,21.26
2018-08-17T03:10:12.027Z,21.26
2018-08-17T03:11:16.184Z,21.27
2018-08-17T03:12:20.455Z,21.27
2018-08-17T03:13:24.588Z,21.29
2018-08-17T03:14:28.792Z,21.30
2018-08-17T03:15:33.159Z,21.32
2018-08-17T03:16:37.353Z,21.32
2018-08-17T03:17:41.526Z,21.35
2018-08-17T03:18:45.683Z,21.36
2018-08-17T03:19:49.978Z,21.35
2018-08-17T03:20:54.183Z,21.37
2018-08-17T03:21:58.382Z,21.36
2018-08-17T03:23:02.551Z,21.35
2018-08-17T03:24:06.936Z,21.35
2018-08-17T03:25:11.106Z,21.36
2018-08-17T03:26:16.091Z,21.35
2018-08-17T03:27:20.568Z,21.32
2018-08-17T03:28:24.738Z,21.28
2018-08-17T03:29:28.971Z,21.17
2018-08-17T03:30:33.128Z,21.08
2018-08-17T03:31:37.337Z,20.99
2018-08-17T03:32:41.601Z,20.90
2018-08-17T03:33:45.782Z,20.82
2018-08-17T03:34:50.031Z,20.77
2018-08-17T03:35:54.522Z,20.72
2018-08-17T03:36:58.883Z,20.67
2018-08-17T03:38:03.192Z,20.65
2018-08-17T03:39:08.783Z,20.60
2018-08-17T03:40:12.934Z,20.57
2018-08-17T03:41:17.186Z,20.54
2018-08-17T03:42:21.414Z,20.50
2018-08-17T03:43:25.699Z,20.49
2018-08-17T03:44:30.021Z,20.46
2018-08-17T03:45:34.214Z,20.45
2018-08-17T03:46:38.530Z,20.44
2018-08-17T03:47:42.703Z,20.45
2018-08-17T03:48:46.855Z,20.48
2018-08-17T03:49:51.031Z,20.47
2018-08-17T03:50:56.107Z,20.49
2018-08-17T03:52:00.505Z,20.49
2018-08-17T03:53:04.679Z,20.52
2018-08-17T03:54:08.875Z,20.53
2018-08-17T03:55:13.628Z,20.52
2018-08-17T03:56:17.809Z,20.55
2018-08-17T03:57:21.971Z,20.56
2018-08-17T03:58:26.274Z,20.56
2018-08-17T03:59:31.669Z,20.57
2018-08-17T04:00:37.139Z,20.58
2018-08-17T04:01:41.298Z,20.60
2018-08-17T04:02:45.492Z,20.63
2018-08-17T04:03:49.668Z,20.64
2018-08-17T04:04:53.955Z,20.66
2018-08-17T04:05:58.144Z,20.69
2018-08-17T04:07:02.412Z,20.71
2018-08-17T04:08:06.730Z,20.73
2018-08-17T04:09:11.832Z,20.76
2018-08-17T04:10:16.011Z,20.78
2018-08-17T04:11:20.200Z,20.81
2018-08-17T04:12:24.358Z,20.84
2018-08-17T04:13:28.590Z,20.89
2018-08-17T04:14:32.991Z,20.92
2018-08-17T04:15:37.523Z,20.95
2018-08-17T04:16:41.692Z,20.99
2018-08-17T04:17:45.828Z,21.03
2018-08-17T04:18:54.576Z,21.04
2018-08-17T04:19:58.813Z,21.08
2018-08-17T04:21:02.979Z,21.10
2018-08-17T04:22:07.305Z,21.11
2018-08-17T04:23:11.444Z,21.12
2018-08-17T04:24:15.590Z,21.14
2018-08-17T04:25:19.864Z,21.15
2018-08-17T04:26:24.146Z,21.17
2018-08-17T04:27:28.387Z,21.19
2018-08-17T04:28:32.563Z,21.20
2018-08-17T04:29:36.758Z,21.20
2018-08-17T04:30:40.969Z,21.21
2018-08-17T04:31:45.125Z,21.21
2018-08-17T04:32:49.375Z,21.22
2018-08-17T04:33:53.595Z,21.21
2018-08-17T04:34:57.804Z,21.19
2018-08-17T04:36:01.989Z,21.20
2018-08-17T04:37:06.156Z,21.18
2018-08-17T04:38:10.310Z,21.18
2018-08-17T04:39:14.472Z,21.20
2018-08-17T04:40:18.679Z,21.21
2018-08-17T04:41:22.864Z,21.19
2018-08-17T04:42:27.591Z,21.18
2018-08-17T04:43:31.903Z,21.19
2018-08-17T04:44:36.361Z,21.17
2018-08-17T04:45:40.516Z,21.19
2018-08-17T04:46:44.896Z,21.20
2018-08-17T04:47:49.086Z,21.20
2018-08-17T04:48:53.630Z,21.20
2018-08-17T04:49:57.775Z,21.22
2018-08-17T04:51:01.938Z,21.21
2018-08-17T04:52:06.194Z,21.20
2018-08-17T04:53:10.339Z,21.20
2018-08-17T04:54:14.509Z,21.20
2018-08-17T04:55:18.772Z,21.19
2018-08-17T04:56:23.117Z,21.15
2018-08-17T04:57:27.425Z,21.05
2018-08-17T04:58:31.849Z,20.97
2018-08-17T04:59:36.104Z,20.84
2018-08-17T05:00:40.275Z,20.73
2018-08-17T05:01:44.440Z,20.62
2018-08-17T05:02:48.606Z,20.51
2018-08-17T05:03:52.878Z,20.43
2018-08-17T05:04:57.033Z,20.33
2018-08-17T05:06:01.180Z,20.17
2018-08-17T05:07:05.350Z,20.04
2018-08-17T05:08:09.549Z,19.92
2018-08-17T05:09:13.716Z,19.78
2018-08-17T05:10:17.846Z,19.72
2018-08-17T05:11:22.197Z,19.61
2018-08-17T05:12:26.534Z,19.51
2018-08-17T05:13:30.810Z,19.41
2018-08-17T05:14:35.116Z,19.35
2018-08-17T05:15:39.243Z,19.27
2018-08-17T05:16:43.497Z,19.21
2018-08-17T05:17:47.648Z,19.18
2018-08-17T05:18:51.990Z,19.15
2018-08-17T05:19:56.224Z,19.11
2018-08-17T05:21:00.365Z,19.08
2018-08-17T05:22:04.723Z,19.07
2018-08-17T05:23:08.876Z,19.04
2018-08-17T05:24:13.767Z,19.05
2018-08-17T05:25:17.918Z,19.04
2018-08-17T05:26:22.102Z,19.06
2018-08-17T05:27:26.239Z,19.08
2018-08-17T05:28:30.375Z,19.11
2018-08-17T05:29:34.567Z,19.12
2018-08-17T05:30:38.718Z,19.14
2018-08-17T05:31:43.327Z,19.16
2018-08-17T05:32:47.486Z,19.16
2018-08-17T05:33:52.041Z,19.16
2018-08-17T05:34:56.196Z,19.17
2018-08-17T05:36:00.393Z,19.14
2018-08-17T05:37:05.077Z,19.14
2018-08-17T05:38:09.268Z,19.16
2018-08-17T05:39:13.399Z,19.18
2018-08-17T05:40:17.579Z,19.22
2018-08-17T05:41:21.729Z,19.23
2018-08-17T05:42:25.859Z,19.22
2018-08-17T05:43:30.007Z,19.23
2018-08-17T05:44:34.158Z,19.24
2018-08-17T05:45:38.660Z,19.28
2018-08-17T05:46:42.911Z,19.30
2018-08-17T05:47:47.113Z,19.32
2018-08-17T05:48:51.351Z,19.33
2018-08-17T05:49:55.536Z,19.32
2018-08-17T05:50:59.731Z,19.33
2018-08-17T05:52:04.037Z,19.31
2018-08-17T05:53:08.261Z,19.29
2018-08-17T05:54:12.467Z,19.29
2018-08-17T05:55:16.671Z,19.28
2018-08-17T05:56:20.909Z,19.29
2018-08-17T05:57:25.108Z,19.32
2018-08-17T05:58:29.283Z,19.33
2018-08-17T05:59:33.654Z,19.36
2018-08-17T06:00:37.919Z,19.39
2018-08-17T06:01:42.114Z,19.41
2018-08-17T06:02:46.552Z,19.41
2018-08-17T06:03:50.703Z,19.43
2018-08-17T06:04:55.060Z,19.41
2018-08-17T06:05:59.422Z,19.40
2018-08-17T06:07:03.640Z,19.41
2018-08-17T06:08:07.973Z,19.43
2018-08-17T06:09:12.198Z,19.45
2018-08-17T06:10:16.543Z,19.47
2018-08-17T06:11:20.949Z,19.48
2018-08-17T06:12:24.948Z,19.47
2018-08-17T06:13:29.192Z,19.45
2018-08-17T06:14:33.362Z,19.46
2018-08-17T06:15:37.578Z,19.47
2018-08-17T06:16:41.779Z,19.48
2018-08-17T06:17:45.989Z,19.51
2018-08-17T06:18:50.174Z,19.53
2018-08-17T06:19:54.716Z,19.55
2018-08-17T06:20:58.887Z,19.54
2018-08-17T06:22:03.066Z,19.54
2018-08-17T06:23:07.329Z,19.51
2018-08-17T06:24:11.626Z,19.49
2018-08-17T06:25:15.934Z,19.46
2018-08-17T06:26:20.086Z,19.44
2018-08-17T06:27:24.366Z,19.42
2018-08-17T06:28:28.823Z,19.42
2018-08-17T06:29:32.999Z,19.40
2018-08-17T06:30:37.203Z,19.39
2018-08-17T06:31:41.489Z,19.37
2018-08-17T06:32:45.907Z,19.35
2018-08-17T06:33:50.139Z,19.36
2018-08-17T06:34:54.315Z,19.37
2018-08-17T06:35:58.551Z,19.36
2018-08-17T06:37:02.817Z,19.39
2018-08-17T06:38:07.009Z,19.41
2018-08-17T06:39:12.020Z,19.41
2018-08-17T06:40:16.239Z,19.44
2018-08-17T06:41:20.442Z,19.44
2018-08-17T06:42:24.650Z,19.46
2018-08-17T06:43:29.057Z,19.46
2018-08-17T06:44:33.264Z,19.46
2018-08-17T06:45:37.468Z,19.50
2018-08-17T06:46:41.936Z,19.51
2018-08-17T06:47:46.110Z,19.53
2018-08-17T06:48:50.300Z,19.55
2018-08-17T06:49:54.802Z,19.56
2018-08-17T06:50:59.172Z,19.56
2018-08-17T06:52:03.215Z,19.57
2018-08-17T06:53:07.395Z,19.61
2018-08-17T06:54:11.559Z,19.60
2018-08-17T06:55:15.783Z,19.61
2018-08-17T06:56:20.032Z,19.60
2018-08-17T06:57:24.303Z,19.60
2018-08-17T06:58:28.458Z,19.63
2018-08-17T06:59:32.783Z,19.64
2018-08-17T07:00:37.058Z,19.64
2018-08-17T07:01:41.553Z,19.65
2018-08-17T07:02:46.654Z,19.64
2018-08-17T07:03:50.839Z,19.65
2018-08-17T07:04:55.017Z,19.66
2018-08-17T07:05:59.394Z,19.68
2018-08-17T07:07:03.666Z,19.71
2018-08-17T07:08:07.831Z,19.72
2018-08-17T07:09:12.118Z,19.74
2018-08-17T07:10:16.223Z,19.75
2018-08-17T07:11:20.441Z,19.78
2018-08-17T07:12:24.667Z,19.82
2018-08-17T07:13:28.827Z,19.86
2018-08-17T07:14:33.060Z,19.89
2018-08-17T07:15:37.442Z,19.90
2018-08-17T07:16:41.767Z,19.93
2018-08-17T07:17:45.981Z,19.94
2018-08-17T07:18:50.665Z,19.96
2018-08-17T07:19:54.900Z,19.98
2018-08-17T07:20:59.039Z,19.98
2018-08-17T07:22:03.719Z,19.99
2018-08-17T07:23:07.920Z,19.98
2018-08-17T07:24:12.132Z,19.96
2018-08-17T07:25:16.335Z,19.96
2018-08-17T07:26:20.499Z,19.96
2018-08-17T07:27:24.707Z,19.95
2018-08-17T07:28:29.053Z,19.92
2018-08-17T07:29:33.210Z,19.91
2018-08-17T07:30:37.404Z,19.89
2018-08-17T07:31:42.271Z,19.86
2018-08-17T07:32:46.455Z,19.85
2018-08-17T07:33:50.620Z,19.85
2018-08-17T07:34:54.779Z,19.84
2018-08-17T07:35:58.944Z,19.82
2018-08-17T07:37:03.103Z,19.82
2018-08-17T07:38:07.312Z,19.82
2018-08-17T07:39:11.498Z,19.82
2018-08-17T07:40:15.966Z,19.82
2018-08-17T07:41:20.295Z,19.83
2018-08-17T07:42:24.475Z,19.89
2018-08-17T07:43:28.674Z,19.93
2018-08-17T07:44:32.880Z,19.96
2018-08-17T07:45:37.479Z,19.98
2018-08-17T07:46:41.910Z,20.00
2018-08-17T07:47:46.157Z,20.01
2018-08-17T07:48:50.300Z,20.03
2018-08-17T07:49:54.437Z,20.04
2018-08-17T07:50:58.579Z,20.07
2018-08-17T07:52:02.771Z,20.10
2018-08-17T07:53:06.943Z,20.13
2018-08-17T07:54:11.122Z,20.16
2018-08-17T07:55:15.566Z,20.19
2018-08-17T07:56:19.740Z,20.22
2018-08-17T07:57:23.904Z,20.24
2018-08-17T07:58:28.106Z,20.24
2018-08-17T07:59:32.335Z,20.25
2018-08-17T08:00:36.816Z,20.25
2018-08-17T08:01:41.157Z,20.28
2018-08-17T08:02:45.462Z,20.29
2018-08-17T08:03:49.582Z,20.31
2018-08-17T08:04:54.134Z,20.32
2018-08-17T08:05:58.298Z,20.35
2018-08-17T08:07:02.471Z,20.38
2018-08-17T08:08:07.001Z,20.41
2018-08-17T08:09:11.576Z,20.43
2018-08-17T08:10:15.762Z,20.47
2018-08-17T08:11:19.940Z,20.52
2018-08-17T08:12:24.099Z,20.56
2018-08-17T08:13:28.388Z,20.62
2018-08-17T08:14:32.599Z,20.69
2018-08-17T08:15:36.835Z,20.75
2018-08-17T08:16:41.085Z,20.81
2018-08-17T08:17:45.428Z,20.88
2018-08-17T08:18:49.617Z,20.93
2018-08-17T08:20:05.079Z,20.96
2018-08-17T08:21:09.281Z,20.96
2018-08-17T08:22:13.548Z,20.95
2018-08-17T08:23:24.618Z,20.96
2018-08-17T08:24:28.860Z,20.93
2018-08-17T08:25:33.023Z,20.92
2018-08-17T08:26:37.235Z,20.91
2018-08-17T08:27:41.535Z,20.89
2018-08-17T08:28:45.764Z,20.89
2018-08-17T08:29:50.047Z,20.89
2018-08-17T08:30:54.732Z,20.87
2018-08-17T08:31:59.015Z,20.86
2018-08-17T08:33:03.343Z,20.83
2018-08-17T08:34:07.691Z,20.81
2018-08-17T08:35:11.848Z,20.79
2018-08-17T08:36:16.039Z,20.77
2018-08-17T08:37:20.695Z,20.76
2018-08-17T08:38:24.918Z,20.74
2018-08-17T08:39:29.318Z,20.72
2018-08-17T08:40:33.456Z,20.69
2018-08-17T08:41:37.694Z,20.65
2018-08-17T08:42:42.038Z,20.62
2018-08-17T08:43:46.212Z,20.58
2018-08-17T08:44:50.358Z,20.52
2018-08-17T08:45:54.615Z,20.48
2018-08-17T08:46:59.075Z,20.44
2018-08-17T08:48:03.866Z,20.42
2018-08-17T08:49:08.075Z,20.39
2018-08-17T08:50:12.487Z,20.36
2018-08-17T08:51:16.635Z,20.35
2018-08-17T08:52:20.916Z,20.32
2018-08-17T08:53:25.064Z,20.30
2018-08-17T08:54:29.228Z,20.29
2018-08-17T08:55:33.393Z,20.28
2018-08-17T08:56:37.634Z,20.28
2018-08-17T08:57:41.788Z,20.26
2018-08-17T08:58:45.979Z,20.24
2018-08-17T08:59:50.127Z,20.23
2018-08-17T09:00:54.304Z,20.19
2018-08-17T09:01:58.483Z,20.19
2018-08-17T09:03:02.619Z,20.15
2018-08-17T09:04:07.611Z,20.14
2018-08-17T09:05:11.787Z,20.12
2018-08-17T09:06:15.993Z,20.12
2018-08-17T09:07:20.176Z,20.11
2018-08-17T09:08:24.409Z,20.11
2018-08-17T09:09:28.601Z,20.12
2018-08-17T09:10:32.780Z,20.13
2018-08-17T09:11:37.036Z,20.13
2018-08-17T09:12:41.216Z,20.14
2018-08-17T09:13:45.498Z,20.13
2018-08-17T09:14:49.637Z,20.12
2018-08-17T09:15:53.973Z,20.11
2018-08-17T09:16:58.135Z,20.12
2018-08-17T09:18:02.352Z,20.12
2018-08-17T09:19:06.696Z,20.16
2018-08-17T09:20:13.063Z,20.18
2018-08-17T09:21:17.199Z,20.24
2018-08-17T09:22:21.352Z,20.29
2018-08-17T09:23:25.539Z,20.32
2018-08-17T09:24:29.697Z,20.35
2018-08-17T09:25:33.875Z,20.37
2018-08-17T09:26:38.015Z,20.39
2018-08-17T09:27:42.553Z,20.42
2018-08-17T09:28:46.699Z,20.44
2018-08-17T09:29:50.963Z,20.46
2018-08-17T09:30:55.131Z,20.48
2018-08-17T09:31:59.271Z,20.50
2018-08-17T09:33:03.406Z,20.52
2018-08-17T09:34:07.904Z,20.54
2018-08-17T09:35:13.186Z,20.58
2018-08-17T09:36:17.391Z,20.65
2018-08-17T09:37:21.792Z,20.70
2018-08-17T09:38:25.934Z,20.75
2018-08-17T09:39:30.162Z,20.81
2018-08-17T09:40:34.316Z,20.85
2018-08-17T09:41:38.551Z,20.89
2018-08-17T09:42:42.658Z,20.92
2018-08-17T09:43:46.778Z,20.92
2018-08-17T09:44:50.920Z,20.94
2018-08-17T09:45:55.064Z,20.97
2018-08-17T09:46:59.535Z,20.97
2018-08-17T09:48:03.700Z,21.00
2018-08-17T09:49:07.864Z,21.06
2018-08-17T09:50:13.684Z,21.10
2018-08-17T09:51:17.999Z,21.19
2018-08-17T09:52:22.187Z,21.23
2018-08-17T09:53:26.983Z,21.28
2018-08-17T09:54:31.163Z,21.36
2018-08-17T09:55:35.315Z,21.46
2018-08-17T09:56:39.504Z,21.55
2018-08-17T09:57:43.765Z,21.62
2018-08-17T09:58:47.852Z,21.68
2018-08-17T09:59:52.119Z,21.71
2018-08-17T10:01:01.579Z,21.76
2018-08-17T10:02:11.920Z,21.80
2018-08-17T10:03:21.320Z,21.84
2018-08-17T10:04:30.941Z,21.85
2018-08-17T10:05:39.638Z,21.86
2018-08-17T10:06:49.299Z,21.89
2018-08-17T10:07:58.818Z,21.97
2018-08-17T10:09:08.449Z,22.04
2018-08-17T10:10:18.438Z,22.10
2018-08-17T10:11:22.595Z,22.19
2018-08-17T10:12:26.911Z,22.26
2018-08-17T10:13:31.195Z,22.31
2018-08-17T10:14:35.499Z,22.35
2018-08-17T10:15:40.085Z,22.41
2018-08-17T10:16:44.319Z,22.44
2018-08-17T10:17:48.467Z,22.48
2018-08-17T10:18:52.675Z,22.50
2018-08-17T10:19:57.036Z,22.51
2018-08-17T10:21:01.452Z,22.52
2018-08-17T10:22:06.174Z,22.54
2018-08-17T10:23:15.488Z,22.57
2018-08-17T10:24:20.303Z,22.62
2018-08-17T10:25:25.726Z,22.62
2018-08-17T10:26:29.925Z,22.61
2018-08-17T10:27:34.105Z,22.59
2018-08-17T10:28:38.466Z,22.55
2018-08-17T10:29:42.625Z,22.50
2018-08-17T10:30:46.848Z,22.47
2018-08-17T10:31:51.453Z,22.44
2018-08-17T10:32:58.673Z,22.40
2018-08-17T10:34:03.027Z,22.36
2018-08-17T10:35:09.015Z,22.32
2018-08-17T10:36:13.220Z,22.30
2018-08-17T10:37:17.467Z,22.29
2018-08-17T10:38:21.732Z,22.28
2018-08-17T10:39:25.882Z,22.28
2018-08-17T10:40:30.092Z,22.27
2018-08-17T10:41:34.457Z,22.29
2018-08-17T10:42:38.619Z,22.34
2018-08-17T10:43:42.788Z,22.38
2018-08-17T10:44:46.969Z,22.43
2018-08-17T10:45:51.198Z,22.49
2018-08-17T10:46:55.380Z,22.52
2018-08-17T10:47:59.942Z,22.53
2018-08-17T10:49:04.168Z,22.54
2018-08-17T10:50:13.628Z,22.52
2018-08-17T10:51:17.759Z,22.48
2018-08-17T10:52:21.923Z,22.42
2018-08-17T10:53:28.774Z,22.33
2018-08-17T10:54:32.956Z,22.28
2018-08-17T10:55:42.920Z,22.24
2018-08-17T10:56:47.079Z,22.22
2018-08-17T10:57:51.454Z,22.22
2018-08-17T10:58:55.602Z,22.21
2018-08-17T10:59:59.923Z,22.18
2018-08-17T11:01:04.112Z,22.18
2018-08-17T11:02:08.286Z,22.20
2018-08-17T11:03:12.470Z,22.20
2018-08-17T11:04:16.624Z,22.19
2018-08-17T11:05:20.806Z,22.17
2018-08-17T11:06:24.993Z,22.17
2018-08-17T11:07:34.462Z,22.14
2018-08-17T11:08:38.983Z,22.10
2018-08-17T11:09:43.240Z,22.08
2018-08-17T11:10:47.418Z,22.05
2018-08-17T11:11:51.575Z,22.04
2018-08-17T11:12:55.787Z,22.01
2018-08-17T11:13:59.965Z,22.01
2018-08-17T11:15:04.839Z,22.00
2018-08-17T11:16:09.086Z,22.00
2018-08-17T11:17:13.220Z,21.98
2018-08-17T11:18:17.435Z,21.97
2018-08-17T11:19:21.799Z,21.97
2018-08-17T11:20:25.943Z,21.98
2018-08-17T11:21:30.231Z,21.98
2018-08-17T11:22:34.852Z,22.00
2018-08-17T11:23:39.176Z,22.01
2018-08-17T11:24:43.484Z,22.03
2018-08-17T11:25:47.649Z,22.07
2018-08-17T11:26:51.893Z,22.11
2018-08-17T11:27:56.061Z,22.15
2018-08-17T11:29:00.588Z,22.18
2018-08-17T11:30:07.640Z,22.21
2018-08-17T11:31:11.848Z,22.25
2018-08-17T11:32:15.991Z,22.27
2018-08-17T11:33:24.591Z,22.28
2018-08-17T11:34:28.831Z,22.27
2018-08-17T11:35:32.973Z,22.26
2018-08-17T11:36:37.198Z,22.29
2018-08-17T11:37:41.379Z,22.31
2018-08-17T11:38:45.527Z,22.33
2018-08-17T11:39:54.715Z,22.35
2018-08-17T11:40:58.868Z,22.37
2018-08-17T11:42:03.013Z,22.40
2018-08-17T11:43:07.222Z,22.44
2018-08-17T11:44:14.687Z,22.47
2018-08-17T11:45:20.391Z,22.48
2018-08-17T11:46:24.634Z,22.48
2018-08-17T11:47:28.860Z,22.48
2018-08-17T11:48:35.034Z,22.50
2018-08-17T11:49:39.218Z,22.51
2018-08-17T11:50:43.430Z,22.52
2018-08-17T11:51:47.618Z,22.51
2018-08-17T11:52:53.021Z,22.56
2018-08-17T11:53:57.304Z,22.58
2018-08-17T11:55:01.706Z,22.61
2018-08-17T11:56:05.928Z,22.64
2018-08-17T11:57:10.180Z,22.63
2018-08-17T11:58:14.363Z,22.60
2018-08-17T11:59:18.615Z,22.58
2018-08-17T12:00:22.798Z,22.52
2018-08-17T12:01:27.402Z,22.47
2018-08-17T12:02:31.571Z,22.44
2018-08-17T12:03:35.755Z,22.43
2018-08-17T12:04:41.064Z,22.40
2018-08-17T12:05:45.215Z,22.42
2018-08-17T12:06:49.369Z,22.44
2018-08-17T12:07:53.557Z,22.45
2018-08-17T12:08:57.769Z,22.47
2018-08-17T12:10:04.675Z,22.50
2018-08-17T12:11:08.847Z,22.52
2018-08-17T12:12:13.151Z,22.54
2018-08-17T12:13:17.664Z,22.54
2018-08-17T12:14:21.802Z,22.56
2018-08-17T12:15:25.972Z,22.57
2018-08-17T12:16:30.149Z,22.62
2018-08-17T12:17:34.639Z,22.69
2018-08-17T12:18:38.950Z,22.74
2018-08-17T12:19:43.095Z,22.81
2018-08-17T12:20:47.403Z,22.86
2018-08-17T12:21:51.547Z,22.89
2018-08-17T12:22:55.814Z,22.94
2018-08-17T12:23:59.984Z,22.97
2018-08-17T12:25:04.670Z,23.00
2018-08-17T12:26:08.724Z,23.01
2018-08-17T12:27:12.921Z,23.03
2018-08-17T12:28:17.091Z,23.09
2018-08-17T12:29:21.301Z,23.13
2018-08-17T12:30:25.581Z,23.19
2018-08-17T12:31:29.762Z,23.24
2018-08-17T12:32:33.912Z,23.30
2018-08-17T12:33:38.598Z,23.34
2018-08-17T12:34:42.888Z,23.38
2018-08-17T12:35:47.298Z,23.41
2018-08-17T12:36:51.608Z,23.44
2018-08-17T12:38:01.120Z,23.44
2018-08-17T12:39:09.095Z,23.47
2018-08-17T12:40:13.906Z,23.46
2018-08-17T12:41:18.199Z,23.47
2018-08-17T12:42:22.358Z,23.51
2018-08-17T12:43:28.263Z,23.54
2018-08-17T12:44:32.954Z,23.52
2018-08-17T12:45:37.140Z,23.50
2018-08-17T12:47:44.615Z,23.42
2018-08-17T12:48:48.953Z,23.40
2018-08-17T12:49:53.202Z,23.38
2018-08-17T12:51:01.567Z,23.36
2018-08-17T12:52:05.780Z,23.37
2018-08-17T12:53:10.042Z,23.36
2018-08-17T12:54:19.609Z,23.38
2018-08-17T12:55:23.792Z,23.39
2018-08-17T12:56:27.990Z,23.40
2018-08-17T12:57:37.617Z,23.41
2018-08-17T12:58:41.963Z,23.44
2018-08-17T12:59:46.199Z,23.45
2018-08-17T13:00:50.396Z,23.49
2018-08-17T13:01:55.141Z,23.49
2018-08-17T13:02:59.323Z,23.49
2018-08-17T13:04:03.579Z,23.49
2018-08-17T13:05:07.812Z,23.48
2018-08-17T13:06:11.988Z,23.48
2018-08-17T13:07:16.449Z,23.51
2018-08-17T13:08:20.606Z,23.54
2018-08-17T13:09:24.788Z,23.54
2018-08-17T13:10:28.962Z,23.54
2018-08-17T13:11:33.193Z,23.56
2018-08-17T13:12:37.383Z,23.57
2018-08-17T13:13:41.547Z,23.60
2018-08-17T13:14:45.793Z,23.61
2018-08-17T13:15:55.151Z,23.64
2018-08-17T13:17:00.260Z,23.66
2018-08-17T13:18:15.138Z,23.68
2018-08-17T13:19:19.456Z,23.70
2018-08-17T13:20:23.845Z,23.73
2018-08-17T13:21:28.151Z,23.76
2018-08-17T13:22:32.375Z,23.80
2018-08-17T13:23:36.733Z,23.85
2018-08-17T13:24:40.918Z,23.89
2018-08-17T13:25:45.179Z,23.92
2018-08-17T13:26:49.486Z,23.90
2018-08-17T13:27:53.664Z,23.91
2018-08-17T13:28:58.101Z,23.89
2018-08-17T13:30:02.263Z,23.87
2018-08-17T13:31:06.428Z,23.87
2018-08-17T13:32:10.613Z,23.86
2018-08-17T13:33:14.758Z,23.86
2018-08-17T13:34:19.008Z,23.84
2018-08-17T13:35:23.230Z,23.80
2018-08-17T13:36:27.445Z,23.76
2018-08-17T13:37:31.805Z,23.76
2018-08-17T13:38:36.025Z,23.73
2018-08-17T13:39:40.426Z,23.69
2018-08-17T13:40:44.615Z,23.65
2018-08-17T13:41:48.869Z,23.63
2018-08-17T13:42:53.019Z,23.61
2018-08-17T13:43:57.191Z,23.58
2018-08-17T13:45:01.385Z,23.55
2018-08-17T13:46:05.639Z,23.56
2018-08-17T13:47:09.928Z,23.55
2018-08-17T13:48:14.139Z,23.56
2018-08-17T13:49:18.447Z,23.56
2018-08-17T13:50:22.920Z,23.55
2018-08-17T13:51:27.364Z,23.54